EGPH

Edinburgh Airport

Edinburgh, United Kingdom
METAR EGPH 250820Z 24016KT 9999 BKN022 10/06 Q1003
Observed Flight Rules
Apr-25 @ 08:20 UTC (13 minutes ago) Marginal Visual Flight Rules
Wind Visibility Clouds
240° at 16 knots 10,000+ meters
  • Broken at 2,200' AGL
Temperatures Readings
Current 10°C / 50°F
Dewpoint 6°C / 43°F
Humidity 76%
Altimeter 29.62" Hg
Pressure 1003 hPa
Elevation 41
METAR EGPH 250820Z 24016KT 9999 BKN022 10/06 Q1003
Observed Flight Rules
Apr-25 @ 08:20 UTC
(13 minutes ago)
MVFR
Wind Visibility
240° at 16 knots 10,000+ meters
Clouds
  • Broken at 2,200' AGL
Temperature Dewpoint
10°C / 50°F 6°C / 43°F
Humidity Altimeter Pressure
76% 29.62" Hg 1003 hPa